createdAt,value
2022-10-01T00:00:15.638Z,21.80
2022-10-01T00:05:19.262Z,22.40
2022-10-01T00:10:23.463Z,24.80
2022-10-01T00:15:27.239Z,22.80
2022-10-01T00:20:31.146Z,22.50
2022-10-01T00:25:35.151Z,21.80
2022-10-01T00:30:45.995Z,24.30
2022-10-01T00:35:50.415Z,24.30
2022-10-01T00:40:54.936Z,24.40
2022-10-01T00:46:04.612Z,24.30
2022-10-01T00:51:13.451Z,21.60
2022-10-01T00:56:18.333Z,21.20
2022-10-01T01:01:24.134Z,21.30
2022-10-01T01:06:28.336Z,22.70
2022-10-01T01:11:39.969Z,21.30
2022-10-01T01:16:50.590Z,23.90
2022-10-01T01:21:59.777Z,22.20
2022-10-01T01:27:16.737Z,22.80
2022-10-01T01:32:25.455Z,23.60
2022-10-01T01:37:35.137Z,21.50
2022-10-01T01:42:42.115Z,23.70
2022-10-01T01:47:47.131Z,23.10
2022-10-01T01:52:51.115Z,22.10
2022-10-01T01:57:56.355Z,22.90
2022-10-01T02:03:01.225Z,28.30
2022-10-01T02:08:23.119Z,31.00
2022-10-01T02:13:41.465Z,24.40
2022-10-01T02:18:50.273Z,25.80
2022-10-01T02:23:59.390Z,25.70
2022-10-01T02:29:07.653Z,28.50
2022-10-01T02:34:19.405Z,26.60
2022-10-01T02:39:27.436Z,30.40
2022-10-01T02:44:37.569Z,25.30
2022-10-01T02:49:41.757Z,27.40
2022-10-01T02:54:53.052Z,25.40
2022-10-01T02:59:59.354Z,27.40
2022-10-01T03:05:04.192Z,27.70
2022-10-01T03:10:10.173Z,29.30
2022-10-01T03:15:17.891Z,28.10
2022-10-01T03:20:22.418Z,26.40
2022-10-01T03:25:26.687Z,29.00
2022-10-01T03:30:30.399Z,27.20
2022-10-01T03:35:34.236Z,28.70
2022-10-01T03:40:38.586Z,27.00
2022-10-01T03:45:42.829Z,29.00
2022-10-01T03:50:54.495Z,27.80
2022-10-01T03:55:59.631Z,30.00
2022-10-01T04:01:03.340Z,29.60
2022-10-01T04:06:07.554Z,31.20
2022-10-01T04:11:12.229Z,31.10
2022-10-01T04:16:16.156Z,28.30
2022-10-01T04:21:20.273Z,29.70
2022-10-01T04:26:24.779Z,30.10
2022-10-01T04:31:34.262Z,31.20
2022-10-01T04:36:38.199Z,31.60
2022-10-01T04:41:42.026Z,31.20
2022-10-01T04:46:46.550Z,31.40
2022-10-01T04:51:50.802Z,31.20
2022-10-01T04:56:54.434Z,31.80
2022-10-01T05:01:58.226Z,29.60
2022-10-01T05:07:01.942Z,31.60
2022-10-01T05:12:07.614Z,33.60
2022-10-01T05:17:11.540Z,31.10
2022-10-01T05:22:15.325Z,31.50
2022-10-01T05:27:19.621Z,33.80
2022-10-01T05:32:24.060Z,34.90
2022-10-01T05:37:27.901Z,36.30
2022-10-01T05:42:32.168Z,35.30
2022-10-01T05:47:35.994Z,33.30
2022-10-01T05:53:07.127Z,35.00
2022-10-01T05:58:16.998Z,35.70
2022-10-01T06:03:38.350Z,35.10
2022-10-01T06:08:52.478Z,34.10
2022-10-01T06:14:03.238Z,33.60
2022-10-01T06:19:06.976Z,34.00
2022-10-01T06:24:12.320Z,35.50
2022-10-01T06:29:16.259Z,34.40
2022-10-01T06:34:20.281Z,33.90
2022-10-01T06:39:24.139Z,36.00
2022-10-01T06:44:28.132Z,34.50
2022-10-01T06:49:31.678Z,34.50
2022-10-01T06:54:35.200Z,34.00
2022-10-01T06:59:38.794Z,33.90
2022-10-01T07:04:42.449Z,34.00
2022-10-01T07:09:46.234Z,34.30
2022-10-01T07:14:49.763Z,34.40
2022-10-01T07:19:53.306Z,29.90
2022-10-01T07:24:56.880Z,32.30
2022-10-01T07:30:00.444Z,32.30
2022-10-01T07:35:05.460Z,29.50
2022-10-01T07:40:10.268Z,30.90
2022-10-01T07:45:13.934Z,31.80
2022-10-01T07:50:19.100Z,30.90
2022-10-01T07:55:26.058Z,30.70
2022-10-01T08:00:32.407Z,29.70
2022-10-01T08:05:37.309Z,28.00
2022-10-01T08:10:42.425Z,27.80
2022-10-01T08:15:49.470Z,27.00
2022-10-01T08:20:56.256Z,26.30
2022-10-01T08:26:01.414Z,25.50
2022-10-01T08:31:09.336Z,25.10
2022-10-01T08:36:16.491Z,25.20
2022-10-01T08:41:31.176Z,23.10
2022-10-01T08:46:37.366Z,24.00
2022-10-01T08:51:48.449Z,21.30
2022-10-01T08:56:54.446Z,22.00
2022-10-01T09:01:58.981Z,21.60
2022-10-01T09:07:10.216Z,19.30
2022-10-01T09:12:27.838Z,19.20
2022-10-01T09:17:52.626Z,19.80
2022-10-01T09:23:11.684Z,20.00
2022-10-01T09:28:19.302Z,24.30
2022-10-01T09:38:34.137Z,23.60
2022-10-01T09:43:40.207Z,24.50
2022-10-01T09:48:49.487Z,21.70
2022-10-01T09:54:04.710Z,23.00
2022-10-01T09:59:16.848Z,22.40
2022-10-01T10:04:23.266Z,21.20
2022-10-01T10:09:32.159Z,20.50
2022-10-01T10:14:39.693Z,22.00
2022-10-01T10:19:48.963Z,19.60
2022-10-01T10:24:53.654Z,20.40
2022-10-01T10:30:08.142Z,18.40
2022-10-01T10:35:15.804Z,18.10
2022-10-01T10:40:27.008Z,15.10
2022-10-01T10:45:39.478Z,14.90
2022-10-01T10:50:46.137Z,14.10
2022-10-01T10:56:00.653Z,15.50
2022-10-01T11:01:09.885Z,13.00
2022-10-01T11:06:18.046Z,14.80
2022-10-01T11:11:36.446Z,16.50
2022-10-01T11:16:54.099Z,17.90
2022-10-01T11:22:14.101Z,16.40
2022-10-01T11:27:25.787Z,17.00
2022-10-01T11:32:37.478Z,16.80
2022-10-01T11:37:59.416Z,16.30
2022-10-01T11:43:07.003Z,17.00
2022-10-01T11:48:18.944Z,23.90
2022-10-01T11:53:31.790Z,21.80
2022-10-01T11:58:52.508Z,22.20
2022-10-01T12:04:16.119Z,19.70
2022-10-01T12:09:24.524Z,18.50
2022-10-01T12:14:37.759Z,20.70
2022-10-01T12:19:49.879Z,23.60
2022-10-01T12:24:54.015Z,21.50
2022-10-01T12:30:04.698Z,26.10
2022-10-01T12:35:23.156Z,21.00
2022-10-01T12:40:34.029Z,23.10
2022-10-01T12:45:48.656Z,21.60
2022-10-01T12:51:04.645Z,28.10
2022-10-01T12:56:16.179Z,32.60
2022-10-01T13:01:31.733Z,27.30
2022-10-01T13:06:47.497Z,24.10
2022-10-01T13:12:11.553Z,22.80
2022-10-01T13:17:21.403Z,21.10
2022-10-01T13:22:34.600Z,18.80
2022-10-01T13:27:43.601Z,19.40
2022-10-01T13:32:57.153Z,24.10
2022-10-01T13:38:14.607Z,19.80
2022-10-01T13:43:23.489Z,17.50
2022-10-01T13:48:34.268Z,20.50
2022-10-01T13:53:49.511Z,19.70
2022-10-01T13:58:53.234Z,21.40
2022-10-01T14:04:04.602Z,21.00
2022-10-01T14:09:16.500Z,20.80
2022-10-01T14:14:44.560Z,26.30
2022-10-01T14:19:50.511Z,23.80
2022-10-01T14:25:14.345Z,24.50
2022-10-01T14:30:22.842Z,24.70
2022-10-01T14:35:33.753Z,21.90
2022-10-01T14:40:40.044Z,23.20
2022-10-01T14:45:54.877Z,21.10
2022-10-01T14:51:03.982Z,23.50
2022-10-01T14:56:12.856Z,25.90
2022-10-01T15:01:21.447Z,35.00
2022-10-01T15:06:29.150Z,31.20
2022-10-01T15:11:34.959Z,21.90
2022-10-01T15:16:40.170Z,26.40
2022-10-01T15:21:49.879Z,21.70
2022-10-01T15:26:58.318Z,23.10
2022-10-01T15:32:08.205Z,20.60
2022-10-01T15:37:20.956Z,23.70
2022-10-01T15:42:29.940Z,19.70
2022-10-01T15:47:36.882Z,23.40
2022-10-01T15:52:50.767Z,21.20
2022-10-01T15:57:57.699Z,19.90
2022-10-01T16:03:02.253Z,23.00
2022-10-01T16:08:09.693Z,22.70
2022-10-01T16:13:42.754Z,20.60
2022-10-01T16:18:56.143Z,22.10
2022-10-01T16:24:27.417Z,24.70
2022-10-01T16:29:35.010Z,27.50
2022-10-01T16:34:41.648Z,23.80
2022-10-01T16:39:45.730Z,9.90
2022-10-01T16:44:50.856Z,4.20
2022-10-01T16:49:54.611Z,1.90
2022-10-01T16:54:58.292Z,2.50
2022-10-01T17:00:02.339Z,1.30
2022-10-01T17:05:16.434Z,1.50
2022-10-01T17:10:22.281Z,2.20
2022-10-01T17:15:29.937Z,1.80
2022-10-01T17:20:33.949Z,1.40
2022-10-01T17:25:40.074Z,1.60
2022-10-01T17:30:45.967Z,2.40
2022-10-01T17:35:51.376Z,2.00
2022-10-01T17:40:56.838Z,2.20
2022-10-01T17:46:01.889Z,2.90
2022-10-01T17:51:08.186Z,2.60
2022-10-01T17:56:14.856Z,3.70
2022-10-01T18:01:22.326Z,3.80
2022-10-01T18:07:08.315Z,5.10
2022-10-01T18:12:12.838Z,6.70
2022-10-01T18:17:17.466Z,8.80
2022-10-01T18:22:23.374Z,8.50
2022-10-01T18:27:27.640Z,8.00
2022-10-01T18:32:37.372Z,7.50
2022-10-01T18:37:46.249Z,7.90
2022-10-01T18:42:55.189Z,7.80
2022-10-01T18:48:11.156Z,9.90
2022-10-01T18:53:39.989Z,10.80
2022-10-01T18:58:57.391Z,9.80
2022-10-01T19:04:28.795Z,9.80
2022-10-01T19:09:43.675Z,11.50
2022-10-01T19:15:03.382Z,10.60
2022-10-01T19:20:23.472Z,11.40
2022-10-01T19:25:33.103Z,10.50
2022-10-01T19:30:56.837Z,10.40
2022-10-01T19:36:01.198Z,9.70
2022-10-01T19:41:14.277Z,9.50
2022-10-01T19:46:22.788Z,9.20
2022-10-01T19:51:32.557Z,8.80
2022-10-01T19:56:37.842Z,8.50
2022-10-01T20:01:49.059Z,9.00
2022-10-01T20:06:59.871Z,9.10
2022-10-01T20:12:11.072Z,8.80
2022-10-01T20:17:22.158Z,9.80
2022-10-01T20:22:36.416Z,8.70
2022-10-01T20:27:49.594Z,9.40
2022-10-01T20:33:00.990Z,9.30
2022-10-01T20:38:11.281Z,8.80
2022-10-01T20:43:18.024Z,9.90
2022-10-01T20:55:48.897Z,9.20
2022-10-01T21:01:00.112Z,8.90
2022-10-01T21:06:11.944Z,8.50
2022-10-01T21:11:25.007Z,8.30
2022-10-01T21:16:52.413Z,8.40
2022-10-01T21:22:06.274Z,7.80
2022-10-01T21:27:26.516Z,8.70
2022-10-01T21:32:47.196Z,8.90
2022-10-01T21:38:01.835Z,7.80
2022-10-01T21:43:18.507Z,7.30
2022-10-01T21:48:38.978Z,7.20
2022-10-01T21:54:02.820Z,8.80
2022-10-01T21:59:16.325Z,7.00
2022-10-01T22:04:26.988Z,7.20
2022-10-01T22:09:39.047Z,7.00
2022-10-01T22:14:45.538Z,6.70
2022-10-01T22:19:52.257Z,7.10
2022-10-01T22:24:59.309Z,8.60
2022-10-01T22:30:10.956Z,7.10
2022-10-01T22:35:20.507Z,6.50
2022-10-01T22:40:28.797Z,6.30
2022-10-01T22:45:47.671Z,6.60
2022-10-01T22:51:04.567Z,6.60
2022-10-01T22:56:13.931Z,6.60
2022-10-01T23:01:30.534Z,6.10
2022-10-01T23:06:50.780Z,7.00
2022-10-01T23:12:04.099Z,7.00
2022-10-01T23:17:14.538Z,7.70
2022-10-01T23:22:36.024Z,6.00
2022-10-01T23:27:50.749Z,6.50
2022-10-01T23:33:11.647Z,6.60
2022-10-01T23:38:35.035Z,6.40
2022-10-01T23:43:46.279Z,6.60
2022-10-01T23:48:55.891Z,6.60
2022-10-01T23:54:04.764Z,6.00
2022-10-01T23:59:16.009Z,6.00
